sensor_id;sensor_type;location;lat;lon;timestamp;temperature;humidity
76996;DHT22;65929;49.062;10.338;2023-04-29T00:00:51;7.90;99.30
76996;DHT22;65929;49.062;10.338;2023-04-29T00:01:52;7.90;99.30
76996;DHT22;65929;49.062;10.338;2023-04-29T00:02:58;8.00;99.30
76996;DHT22;65929;49.062;10.338;2023-04-29T00:04:02;8.00;99.40
76996;DHT22;65929;49.062;10.338;2023-04-29T00:05:04;8.00;99.40
76996;DHT22;65929;49.062;10.338;2023-04-29T00:06:05;8.00;99.40
76996;DHT22;65929;49.062;10.338;2023-04-29T00:07:06;8.00;99.40
76996;DHT22;65929;49.062;10.338;2023-04-29T00:08:08;8.00;99.40
76996;DHT22;65929;49.062;10.338;2023-04-29T00:09:09;8.00;99.40
76996;DHT22;65929;49.062;10.338;2023-04-29T00:10:10;8.00;99.40
76996;DHT22;65929;49.062;10.338;2023-04-29T00:11:14;8.10;99.40
76996;DHT22;65929;49.062;10.338;2023-04-29T00:12:18;8.10;99.40
76996;DHT22;65929;49.062;10.338;2023-04-29T00:13:19;8.10;99.40
76996;DHT22;65929;49.062;10.338;2023-04-29T00:14:20;8.10;99.40
76996;DHT22;65929;49.062;10.338;2023-04-29T00:15:21;8.10;99.40
76996;DHT22;65929;49.062;10.338;2023-04-29T00:16:22;8.10;99.50
76996;DHT22;65929;49.062;10.338;2023-04-29T00:17:23;8.10;99.40
76996;DHT22;65929;49.062;10.338;2023-04-29T00:18:24;8.20;99.40
76996;DHT22;65929;49.062;10.338;2023-04-29T00:19:27;8.20;99.50
76996;DHT22;65929;49.062;10.338;2023-04-29T00:20:29;8.20;99.40
76996;DHT22;65929;49.062;10.338;2023-04-29T00:21:30;8.20;99.50
76996;DHT22;65929;49.062;10.338;2023-04-29T00:22:32;8.30;99.50
76996;DHT22;65929;49.062;10.338;2023-04-29T00:23:34;8.30;99.50
76996;DHT22;65929;49.062;10.338;2023-04-29T00:24:35;8.30;99.50
76996;DHT22;65929;49.062;10.338;2023-04-29T00:25:36;8.40;99.50
76996;DHT22;65929;49.062;10.338;2023-04-29T00:26:38;8.40;99.50
76996;DHT22;65929;49.062;10.338;2023-04-29T00:27:40;8.40;99.50
76996;DHT22;65929;49.062;10.338;2023-04-29T00:28:42;8.40;99.50
76996;DHT22;65929;49.062;10.338;2023-04-29T00:29:43;8.40;99.50
76996;DHT22;65929;49.062;10.338;2023-04-29T00:30:44;8.50;99.50
76996;DHT22;65929;49.062;10.338;2023-04-29T00:31:45;8.50;99.50
76996;DHT22;65929;49.062;10.338;2023-04-29T00:32:46;8.50;99.60
76996;DHT22;65929;49.062;10.338;2023-04-29T00:33:47;8.60;99.60
76996;DHT22;65929;49.062;10.338;2023-04-29T00:34:49;8.60;99.60
76996;DHT22;65929;49.062;10.338;2023-04-29T00:35:51;8.60;99.60
76996;DHT22;65929;49.062;10.338;2023-04-29T00:36:52;8.60;99.60
76996;DHT22;65929;49.062;10.338;2023-04-29T00:37:53;8.70;99.70
76996;DHT22;65929;49.062;10.338;2023-04-29T00:38:54;8.80;99.60
76996;DHT22;65929;49.062;10.338;2023-04-29T00:39:55;8.80;99.70
76996;DHT22;65929;49.062;10.338;2023-04-29T00:40:56;8.80;99.70
76996;DHT22;65929;49.062;10.338;2023-04-29T00:41:57;8.80;99.70
76996;DHT22;65929;49.062;10.338;2023-04-29T00:42:58;8.80;99.60
76996;DHT22;65929;49.062;10.338;2023-04-29T00:43:59;8.80;99.60
76996;DHT22;65929;49.062;10.338;2023-04-29T00:45:00;8.90;99.70
76996;DHT22;65929;49.062;10.338;2023-04-29T00:46:02;8.90;99.70
76996;DHT22;65929;49.062;10.338;2023-04-29T00:47:03;8.90;99.70
76996;DHT22;65929;49.062;10.338;2023-04-29T00:48:05;8.90;99.70
76996;DHT22;65929;49.062;10.338;2023-04-29T00:49:06;8.90;99.60
76996;DHT22;65929;49.062;10.338;2023-04-29T00:50:10;8.90;99.70
76996;DHT22;65929;49.062;10.338;2023-04-29T00:51:11;8.90;99.70
76996;DHT22;65929;49.062;10.338;2023-04-29T00:52:12;8.90;99.70
76996;DHT22;65929;49.062;10.338;2023-04-29T00:53:14;8.90;99.70
76996;DHT22;65929;49.062;10.338;2023-04-29T00:54:15;8.90;99.70
76996;DHT22;65929;49.062;10.338;2023-04-29T00:55:16;8.90;99.70
76996;DHT22;65929;49.062;10.338;2023-04-29T00:56:18;8.90;99.70
76996;DHT22;65929;49.062;10.338;2023-04-29T00:57:21;8.90;99.70
76996;DHT22;65929;49.062;10.338;2023-04-29T00:58:22;8.90;99.70
76996;DHT22;65929;49.062;10.338;2023-04-29T00:59:29;8.90;99.70
76996;DHT22;65929;49.062;10.338;2023-04-29T01:00:32;8.90;99.70
76996;DHT22;65929;49.062;10.338;2023-04-29T01:01:33;9.00;99.70
76996;DHT22;65929;49.062;10.338;2023-04-29T01:02:34;9.00;99.70
76996;DHT22;65929;49.062;10.338;2023-04-29T01:03:36;9.00;99.70
76996;DHT22;65929;49.062;10.338;2023-04-29T01:04:38;9.00;99.70
76996;DHT22;65929;49.062;10.338;2023-04-29T01:05:40;9.00;99.70
76996;DHT22;65929;49.062;10.338;2023-04-29T01:06:51;9.00;99.80
76996;DHT22;65929;49.062;10.338;2023-04-29T01:08:08;9.00;99.70
76996;DHT22;65929;49.062;10.338;2023-04-29T01:09:16;8.90;99.70
76996;DHT22;65929;49.062;10.338;2023-04-29T01:10:24;8.90;99.70
76996;DHT22;65929;49.062;10.338;2023-04-29T01:11:33;9.00;99.70
76996;DHT22;65929;49.062;10.338;2023-04-29T01:12:42;8.90;99.70
76996;DHT22;65929;49.062;10.338;2023-04-29T01:13:49;8.90;99.70
76996;DHT22;65929;49.062;10.338;2023-04-29T01:14:56;8.90;99.70
76996;DHT22;65929;49.062;10.338;2023-04-29T01:16:03;8.90;99.70
76996;DHT22;65929;49.062;10.338;2023-04-29T01:17:09;8.90;99.70
76996;DHT22;65929;49.062;10.338;2023-04-29T01:18:19;9.00;99.70
76996;DHT22;65929;49.062;10.338;2023-04-29T01:19:39;9.00;99.70
76996;DHT22;65929;49.062;10.338;2023-04-29T01:20:46;9.00;99.80
76996;DHT22;65929;49.062;10.338;2023-04-29T01:21:48;9.00;99.70
76996;DHT22;65929;49.062;10.338;2023-04-29T01:22:49;9.00;99.80
76996;DHT22;65929;49.062;10.338;2023-04-29T01:23:51;9.00;99.80
76996;DHT22;65929;49.062;10.338;2023-04-29T01:24:55;9.00;99.80
76996;DHT22;65929;49.062;10.338;2023-04-29T01:25:57;9.00;99.80
76996;DHT22;65929;49.062;10.338;2023-04-29T01:27:08;9.00;99.80
76996;DHT22;65929;49.062;10.338;2023-04-29T01:28:17;9.10;99.80
76996;DHT22;65929;49.062;10.338;2023-04-29T01:29:24;9.10;99.80
76996;DHT22;65929;49.062;10.338;2023-04-29T01:30:33;9.20;99.80
76996;DHT22;65929;49.062;10.338;2023-04-29T01:31:40;9.20;99.80
76996;DHT22;65929;49.062;10.338;2023-04-29T01:32:49;9.20;99.80
76996;DHT22;65929;49.062;10.338;2023-04-29T01:34:08;9.20;99.80
76996;DHT22;65929;49.062;10.338;2023-04-29T01:35:10;9.20;99.80
76996;DHT22;65929;49.062;10.338;2023-04-29T01:36:24;9.30;99.90
76996;DHT22;65929;49.062;10.338;2023-04-29T01:37:32;9.40;99.80
76996;DHT22;65929;49.062;10.338;2023-04-29T01:38:38;9.40;99.80
76996;DHT22;65929;49.062;10.338;2023-04-29T01:39:45;9.40;99.80
76996;DHT22;65929;49.062;10.338;2023-04-29T01:40:52;9.40;99.90
76996;DHT22;65929;49.062;10.338;2023-04-29T01:42:05;9.40;99.90
76996;DHT22;65929;49.062;10.338;2023-04-29T01:43:07;9.40;99.90
76996;DHT22;65929;49.062;10.338;2023-04-29T01:44:14;9.40;99.90
76996;DHT22;65929;49.062;10.338;2023-04-29T01:45:16;9.40;99.80
76996;DHT22;65929;49.062;10.338;2023-04-29T01:46:18;9.40;99.80
76996;DHT22;65929;49.062;10.338;2023-04-29T01:47:21;9.40;99.80
76996;DHT22;65929;49.062;10.338;2023-04-29T01:48:23;9.40;99.80
76996;DHT22;65929;49.062;10.338;2023-04-29T01:49:24;9.40;99.90
76996;DHT22;65929;49.062;10.338;2023-04-29T01:50:25;9.40;99.90
76996;DHT22;65929;49.062;10.338;2023-04-29T01:51:26;9.40;99.90
76996;DHT22;65929;49.062;10.338;2023-04-29T01:52:28;9.40;99.90
76996;DHT22;65929;49.062;10.338;2023-04-29T01:53:28;9.40;99.90
76996;DHT22;65929;49.062;10.338;2023-04-29T01:54:29;9.40;99.90
76996;DHT22;65929;49.062;10.338;2023-04-29T01:55:33;9.40;99.90
76996;DHT22;65929;49.062;10.338;2023-04-29T01:56:33;9.40;99.90
76996;DHT22;65929;49.062;10.338;2023-04-29T01:57:35;9.40;99.90
76996;DHT22;65929;49.062;10.338;2023-04-29T01:58:35;9.40;99.90
76996;DHT22;65929;49.062;10.338;2023-04-29T01:59:36;9.40;99.90
76996;DHT22;65929;49.062;10.338;2023-04-29T02:00:37;9.40;99.90
76996;DHT22;65929;49.062;10.338;2023-04-29T02:01:38;9.40;99.90
76996;DHT22;65929;49.062;10.338;2023-04-29T02:02:39;9.40;99.90
76996;DHT22;65929;49.062;10.338;2023-04-29T02:03:40;9.40;99.90
76996;DHT22;65929;49.062;10.338;2023-04-29T02:04:41;9.40;99.90
76996;DHT22;65929;49.062;10.338;2023-04-29T02:05:43;9.40;99.90
76996;DHT22;65929;49.062;10.338;2023-04-29T02:06:44;9.40;99.90
76996;DHT22;65929;49.062;10.338;2023-04-29T02:07:45;9.40;99.90
76996;DHT22;65929;49.062;10.338;2023-04-29T02:08:45;9.50;99.90
76996;DHT22;65929;49.062;10.338;2023-04-29T02:09:48;9.50;99.90
76996;DHT22;65929;49.062;10.338;2023-04-29T02:10:54;9.50;99.90
76996;DHT22;65929;49.062;10.338;2023-04-29T02:11:55;9.50;99.90
76996;DHT22;65929;49.062;10.338;2023-04-29T02:12:56;9.50;99.90
76996;DHT22;65929;49.062;10.338;2023-04-29T02:13:57;9.50;99.90
76996;DHT22;65929;49.062;10.338;2023-04-29T02:14:58;9.60;99.90
76996;DHT22;65929;49.062;10.338;2023-04-29T02:16:06;9.50;99.90
76996;DHT22;65929;49.062;10.338;2023-04-29T02:17:07;9.50;99.90
76996;DHT22;65929;49.062;10.338;2023-04-29T02:18:08;9.60;99.90
76996;DHT22;65929;49.062;10.338;2023-04-29T02:19:10;9.60;99.90
76996;DHT22;65929;49.062;10.338;2023-04-29T02:20:11;9.60;99.90
76996;DHT22;65929;49.062;10.338;2023-04-29T02:21:12;9.60;99.90
76996;DHT22;65929;49.062;10.338;2023-04-29T02:22:13;9.60;99.90
76996;DHT22;65929;49.062;10.338;2023-04-29T02:23:14;9.60;99.90
76996;DHT22;65929;49.062;10.338;2023-04-29T02:24:15;9.60;99.90
76996;DHT22;65929;49.062;10.338;2023-04-29T02:25:16;9.60;99.90
76996;DHT22;65929;49.062;10.338;2023-04-29T02:26:19;9.60;99.90
76996;DHT22;65929;49.062;10.338;2023-04-29T02:27:20;9.60;99.90
76996;DHT22;65929;49.062;10.338;2023-04-29T02:28:22;9.70;99.90
76996;DHT22;65929;49.062;10.338;2023-04-29T02:29:23;9.70;99.90
76996;DHT22;65929;49.062;10.338;2023-04-29T02:30:26;9.70;99.90
76996;DHT22;65929;49.062;10.338;2023-04-29T02:31:27;9.70;99.90
76996;DHT22;65929;49.062;10.338;2023-04-29T02:32:28;9.70;99.90
76996;DHT22;65929;49.062;10.338;2023-04-29T02:33:29;9.70;99.90
76996;DHT22;65929;49.062;10.338;2023-04-29T02:34:30;9.70;99.90
76996;DHT22;65929;49.062;10.338;2023-04-29T02:35:31;9.70;99.90
76996;DHT22;65929;49.062;10.338;2023-04-29T02:36:35;9.70;99.90
76996;DHT22;65929;49.062;10.338;2023-04-29T02:37:36;9.60;99.90
76996;DHT22;65929;49.062;10.338;2023-04-29T02:38:37;9.70;99.90
76996;DHT22;65929;49.062;10.338;2023-04-29T02:39:38;9.70;99.90
76996;DHT22;65929;49.062;10.338;2023-04-29T02:40:40;9.70;99.90
76996;DHT22;65929;49.062;10.338;2023-04-29T02:41:43;9.60;99.90
76996;DHT22;65929;49.062;10.338;2023-04-29T02:42:44;9.60;99.90
76996;DHT22;65929;49.062;10.338;2023-04-29T02:43:45;9.60;99.90
76996;DHT22;65929;49.062;10.338;2023-04-29T02:44:46;9.60;99.90
76996;DHT22;65929;49.062;10.338;2023-04-29T02:45:47;9.60;99.90
76996;DHT22;65929;49.062;10.338;2023-04-29T02:46:48;9.60;99.90
76996;DHT22;65929;49.062;10.338;2023-04-29T02:47:49;9.60;99.90
76996;DHT22;65929;49.062;10.338;2023-04-29T02:48:49;9.60;99.90
76996;DHT22;65929;49.062;10.338;2023-04-29T02:49:50;9.60;99.90
76996;DHT22;65929;49.062;10.338;2023-04-29T02:50:51;9.50;99.90
76996;DHT22;65929;49.062;10.338;2023-04-29T02:51:52;9.50;99.90
76996;DHT22;65929;49.062;10.338;2023-04-29T02:52:54;9.50;99.90
76996;DHT22;65929;49.062;10.338;2023-04-29T02:53:55;9.40;99.90
76996;DHT22;65929;49.062;10.338;2023-04-29T02:54:56;9.50;99.90
76996;DHT22;65929;49.062;10.338;2023-04-29T02:55:57;9.50;99.90
76996;DHT22;65929;49.062;10.338;2023-04-29T02:56:59;9.60;99.90
76996;DHT22;65929;49.062;10.338;2023-04-29T02:58:00;9.70;99.90
76996;DHT22;65929;49.062;10.338;2023-04-29T02:59:01;9.70;99.90
76996;DHT22;65929;49.062;10.338;2023-04-29T03:00:02;9.70;99.90
76996;DHT22;65929;49.062;10.338;2023-04-29T03:01:03;9.80;99.90
76996;DHT22;65929;49.062;10.338;2023-04-29T03:02:07;9.80;99.90
76996;DHT22;65929;49.062;10.338;2023-04-29T03:03:08;9.90;99.90
76996;DHT22;65929;49.062;10.338;2023-04-29T03:04:09;10.00;99.90
76996;DHT22;65929;49.062;10.338;2023-04-29T03:05:10;10.10;99.90
76996;DHT22;65929;49.062;10.338;2023-04-29T03:06:11;10.20;99.90
76996;DHT22;65929;49.062;10.338;2023-04-29T03:07:12;10.30;99.90
76996;DHT22;65929;49.062;10.338;2023-04-29T03:08:13;10.30;99.90
76996;DHT22;65929;49.062;10.338;2023-04-29T03:09:14;10.40;99.90
76996;DHT22;65929;49.062;10.338;2023-04-29T03:10:15;10.40;99.90
76996;DHT22;65929;49.062;10.338;2023-04-29T03:11:17;10.50;99.90
76996;DHT22;65929;49.062;10.338;2023-04-29T03:12:20;10.50;99.90
76996;DHT22;65929;49.062;10.338;2023-04-29T03:13:21;10.50;99.90
76996;DHT22;65929;49.062;10.338;2023-04-29T03:14:22;10.50;99.90
76996;DHT22;65929;49.062;10.338;2023-04-29T03:15:23;10.60;99.90
76996;DHT22;65929;49.062;10.338;2023-04-29T03:16:24;10.60;99.90
76996;DHT22;65929;49.062;10.338;2023-04-29T03:17:25;10.60;99.90
76996;DHT22;65929;49.062;10.338;2023-04-29T03:18:26;10.60;99.90
76996;DHT22;65929;49.062;10.338;2023-04-29T03:19:27;10.60;99.90
76996;DHT22;65929;49.062;10.338;2023-04-29T03:20:29;10.60;99.90
76996;DHT22;65929;49.062;10.338;2023-04-29T03:21:30;10.70;99.90
76996;DHT22;65929;49.062;10.338;2023-04-29T03:22:30;10.70;99.90
76996;DHT22;65929;49.062;10.338;2023-04-29T03:23:31;10.70;99.90
76996;DHT22;65929;49.062;10.338;2023-04-29T03:24:32;10.80;99.90
76996;DHT22;65929;49.062;10.338;2023-04-29T03:25:33;10.80;99.90
76996;DHT22;65929;49.062;10.338;2023-04-29T03:26:34;10.80;99.90
76996;DHT22;65929;49.062;10.338;2023-04-29T03:27:37;10.90;99.90
76996;DHT22;65929;49.062;10.338;2023-04-29T03:28:38;10.90;99.90
76996;DHT22;65929;49.062;10.338;2023-04-29T03:29:39;10.90;99.90
76996;DHT22;65929;49.062;10.338;2023-04-29T03:30:42;11.00;99.90
76996;DHT22;65929;49.062;10.338;2023-04-29T03:31:43;10.90;99.90
76996;DHT22;65929;49.062;10.338;2023-04-29T03:32:44;11.00;99.90
76996;DHT22;65929;49.062;10.338;2023-04-29T03:33:45;11.00;99.90
76996;DHT22;65929;49.062;10.338;2023-04-29T03:34:46;11.00;99.90
76996;DHT22;65929;49.062;10.338;2023-04-29T03:35:47;11.00;99.90
76996;DHT22;65929;49.062;10.338;2023-04-29T03:36:48;10.90;99.90
76996;DHT22;65929;49.062;10.338;2023-04-29T03:37:49;10.90;99.90
76996;DHT22;65929;49.062;10.338;2023-04-29T03:38:50;10.90;99.90
76996;DHT22;65929;49.062;10.338;2023-04-29T03:39:51;10.90;99.90
76996;DHT22;65929;49.062;10.338;2023-04-29T03:40:51;10.90;99.90
76996;DHT22;65929;49.062;10.338;2023-04-29T03:41:52;10.90;99.90
76996;DHT22;65929;49.062;10.338;2023-04-29T03:42:55;10.90;99.90
76996;DHT22;65929;49.062;10.338;2023-04-29T03:43:56;10.90;99.90
76996;DHT22;65929;49.062;10.338;2023-04-29T03:45:00;10.90;99.90
76996;DHT22;65929;49.062;10.338;2023-04-29T03:46:01;10.90;99.90
76996;DHT22;65929;49.062;10.338;2023-04-29T03:47:02;10.90;99.90
76996;DHT22;65929;49.062;10.338;2023-04-29T03:48:04;10.90;99.90
76996;DHT22;65929;49.062;10.338;2023-04-29T03:49:05;10.90;99.90
76996;DHT22;65929;49.062;10.338;2023-04-29T03:50:07;10.90;99.90
76996;DHT22;65929;49.062;10.338;2023-04-29T03:51:08;11.00;99.90
76996;DHT22;65929;49.062;10.338;2023-04-29T03:52:10;11.00;99.90
76996;DHT22;65929;49.062;10.338;2023-04-29T03:53:13;11.00;99.90
76996;DHT22;65929;49.062;10.338;2023-04-29T03:54:14;11.00;99.90
76996;DHT22;65929;49.062;10.338;2023-04-29T03:55:15;11.00;99.90
76996;DHT22;65929;49.062;10.338;2023-04-29T03:56:16;11.00;99.90
76996;DHT22;65929;49.062;10.338;2023-04-29T03:57:17;11.00;99.90
76996;DHT22;65929;49.062;10.338;2023-04-29T03:58:22;11.00;99.90
76996;DHT22;65929;49.062;10.338;2023-04-29T03:59:23;11.00;99.90
76996;DHT22;65929;49.062;10.338;2023-04-29T04:00:24;11.10;99.90
76996;DHT22;65929;49.062;10.338;2023-04-29T04:01:26;11.10;99.90
76996;DHT22;65929;49.062;10.338;2023-04-29T04:02:27;11.10;99.90
76996;DHT22;65929;49.062;10.338;2023-04-29T04:03:28;11.10;99.90
76996;DHT22;65929;49.062;10.338;2023-04-29T04:04:29;11.10;99.90
76996;DHT22;65929;49.062;10.338;2023-04-29T04:05:29;11.10;99.90
76996;DHT22;65929;49.062;10.338;2023-04-29T04:06:30;11.10;99.90
76996;DHT22;65929;49.062;10.338;2023-04-29T04:07:31;11.10;99.90
76996;DHT22;65929;49.062;10.338;2023-04-29T04:08:32;11.10;99.90
76996;DHT22;65929;49.062;10.338;2023-04-29T04:09:33;11.10;99.90
76996;DHT22;65929;49.062;10.338;2023-04-29T04:10:34;11.10;99.90
76996;DHT22;65929;49.062;10.338;2023-04-29T04:11:35;11.10;99.90
76996;DHT22;65929;49.062;10.338;2023-04-29T04:12:36;11.10;99.90
76996;DHT22;65929;49.062;10.338;2023-04-29T04:13:38;11.10;99.90
76996;DHT22;65929;49.062;10.338;2023-04-29T04:14:39;11.10;99.90
76996;DHT22;65929;49.062;10.338;2023-04-29T04:15:40;11.00;99.90
76996;DHT22;65929;49.062;10.338;2023-04-29T04:16:42;11.00;99.90
76996;DHT22;65929;49.062;10.338;2023-04-29T04:17:43;11.00;99.90
76996;DHT22;65929;49.062;10.338;2023-04-29T04:18:44;11.00;99.90
76996;DHT22;65929;49.062;10.338;2023-04-29T04:19:45;11.00;99.90
76996;DHT22;65929;49.062;10.338;2023-04-29T04:20:46;11.00;99.90
76996;DHT22;65929;49.062;10.338;2023-04-29T04:21:47;11.00;99.90
76996;DHT22;65929;49.062;10.338;2023-04-29T04:22:48;11.00;99.90
76996;DHT22;65929;49.062;10.338;2023-04-29T04:23:49;11.00;99.90
76996;DHT22;65929;49.062;10.338;2023-04-29T04:24:50;11.00;99.90
76996;DHT22;65929;49.062;10.338;2023-04-29T04:25:54;11.00;99.90
76996;DHT22;65929;49.062;10.338;2023-04-29T04:26:55;11.00;99.90
76996;DHT22;65929;49.062;10.338;2023-04-29T04:27:55;11.00;99.90
76996;DHT22;65929;49.062;10.338;2023-04-29T04:28:58;11.00;99.90
76996;DHT22;65929;49.062;10.338;2023-04-29T04:29:59;11.00;99.90
76996;DHT22;65929;49.062;10.338;2023-04-29T04:31:00;11.00;99.90
76996;DHT22;65929;49.062;10.338;2023-04-29T04:32:00;11.00;99.90
76996;DHT22;65929;49.062;10.338;2023-04-29T04:33:02;11.00;99.90
76996;DHT22;65929;49.062;10.338;2023-04-29T04:34:03;11.00;99.90
76996;DHT22;65929;49.062;10.338;2023-04-29T04:35:05;11.00;99.90
76996;DHT22;65929;49.062;10.338;2023-04-29T04:36:06;11.00;99.90
76996;DHT22;65929;49.062;10.338;2023-04-29T04:37:07;11.00;99.90
76996;DHT22;65929;49.062;10.338;2023-04-29T04:38:08;11.00;99.90
76996;DHT22;65929;49.062;10.338;2023-04-29T04:39:11;11.00;99.90
76996;DHT22;65929;49.062;10.338;2023-04-29T04:40:12;11.10;99.90
76996;DHT22;65929;49.062;10.338;2023-04-29T04:41:13;11.10;99.90
76996;DHT22;65929;49.062;10.338;2023-04-29T04:42:14;11.10;99.90
76996;DHT22;65929;49.062;10.338;2023-04-29T04:43:15;11.10;99.90
76996;DHT22;65929;49.062;10.338;2023-04-29T04:44:18;11.10;99.90
76996;DHT22;65929;49.062;10.338;2023-04-29T04:45:19;11.00;99.90
76996;DHT22;65929;49.062;10.338;2023-04-29T04:46:20;11.00;99.90
76996;DHT22;65929;49.062;10.338;2023-04-29T04:47:21;11.00;99.90
76996;DHT22;65929;49.062;10.338;2023-04-29T04:48:22;10.90;99.90
76996;DHT22;65929;49.062;10.338;2023-04-29T04:49:23;10.90;99.90
76996;DHT22;65929;49.062;10.338;2023-04-29T04:50:27;10.90;99.90
76996;DHT22;65929;49.062;10.338;2023-04-29T04:51:28;10.90;99.90
76996;DHT22;65929;49.062;10.338;2023-04-29T04:52:29;10.80;99.90
76996;DHT22;65929;49.062;10.338;2023-04-29T04:53:30;10.80;99.90
76996;DHT22;65929;49.062;10.338;2023-04-29T04:54:31;10.80;99.90
76996;DHT22;65929;49.062;10.338;2023-04-29T04:55:32;10.80;99.90
76996;DHT22;65929;49.062;10.338;2023-04-29T04:56:33;10.80;99.90
76996;DHT22;65929;49.062;10.338;2023-04-29T04:57:37;10.80;99.90
76996;DHT22;65929;49.062;10.338;2023-04-29T04:58:38;10.80;99.90
76996;DHT22;65929;49.062;10.338;2023-04-29T04:59:40;10.80;99.90
76996;DHT22;65929;49.062;10.338;2023-04-29T05:00:43;10.80;99.90
76996;DHT22;65929;49.062;10.338;2023-04-29T05:01:44;10.80;99.90
76996;DHT22;65929;49.062;10.338;2023-04-29T05:02:45;10.80;99.90
76996;DHT22;65929;49.062;10.338;2023-04-29T05:03:46;10.90;99.90
76996;DHT22;65929;49.062;10.338;2023-04-29T05:04:47;10.90;99.90
76996;DHT22;65929;49.062;10.338;2023-04-29T05:05:52;10.90;99.90
76996;DHT22;65929;49.062;10.338;2023-04-29T05:06:53;10.90;99.90
76996;DHT22;65929;49.062;10.338;2023-04-29T05:07:54;10.90;99.90
76996;DHT22;65929;49.062;10.338;2023-04-29T05:08:55;10.90;99.90
76996;DHT22;65929;49.062;10.338;2023-04-29T05:09:57;10.90;99.90
76996;DHT22;65929;49.062;10.338;2023-04-29T05:10:58;10.90;99.90
76996;DHT22;65929;49.062;10.338;2023-04-29T05:11:59;10.90;99.90
76996;DHT22;65929;49.062;10.338;2023-04-29T05:13:00;10.90;99.90
76996;DHT22;65929;49.062;10.338;2023-04-29T05:14:01;10.90;99.90
76996;DHT22;65929;49.062;10.338;2023-04-29T05:15:03;11.00;99.90
76996;DHT22;65929;49.062;10.338;2023-04-29T05:16:05;11.00;99.90
76996;DHT22;65929;49.062;10.338;2023-04-29T05:17:06;11.00;99.90
76996;DHT22;65929;49.062;10.338;2023-04-29T05:18:09;11.00;99.90
76996;DHT22;65929;49.062;10.338;2023-04-29T05:19:10;11.00;99.90
76996;DHT22;65929;49.062;10.338;2023-04-29T05:20:11;11.00;99.90
76996;DHT22;65929;49.062;10.338;2023-04-29T05:21:12;11.00;99.90
76996;DHT22;65929;49.062;10.338;2023-04-29T05:22:13;11.00;99.90
76996;DHT22;65929;49.062;10.338;2023-04-29T05:23:14;11.10;99.90
76996;DHT22;65929;49.062;10.338;2023-04-29T05:24:15;11.10;99.90
76996;DHT22;65929;49.062;10.338;2023-04-29T05:25:16;11.10;99.90
76996;DHT22;65929;49.062;10.338;2023-04-29T05:26:17;11.10;99.90
76996;DHT22;65929;49.062;10.338;2023-04-29T05:27:18;11.10;99.80
76996;DHT22;65929;49.062;10.338;2023-04-29T05:28:19;11.10;99.80
76996;DHT22;65929;49.062;10.338;2023-04-29T05:29:20;11.10;99.80
76996;DHT22;65929;49.062;10.338;2023-04-29T05:30:23;11.10;99.70
76996;DHT22;65929;49.062;10.338;2023-04-29T05:31:24;11.20;99.70
76996;DHT22;65929;49.062;10.338;2023-04-29T05:32:25;11.20;99.70
76996;DHT22;65929;49.062;10.338;2023-04-29T05:33:26;11.20;99.70
76996;DHT22;65929;49.062;10.338;2023-04-29T05:34:27;11.30;99.70
76996;DHT22;65929;49.062;10.338;2023-04-29T05:35:28;11.30;99.60
76996;DHT22;65929;49.062;10.338;2023-04-29T05:36:30;11.30;99.60
76996;DHT22;65929;49.062;10.338;2023-04-29T05:37:31;11.30;99.60
76996;DHT22;65929;49.062;10.338;2023-04-29T05:38:33;11.40;99.60
76996;DHT22;65929;49.062;10.338;2023-04-29T05:39:33;11.40;99.40
76996;DHT22;65929;49.062;10.338;2023-04-29T05:40:34;11.40;99.40
76996;DHT22;65929;49.062;10.338;2023-04-29T05:41:35;11.40;99.30
76996;DHT22;65929;49.062;10.338;2023-04-29T05:42:36;11.40;99.10
76996;DHT22;65929;49.062;10.338;2023-04-29T05:43:37;11.40;99.10
76996;DHT22;65929;49.062;10.338;2023-04-29T05:44:38;11.40;99.00
76996;DHT22;65929;49.062;10.338;2023-04-29T05:45:41;11.40;98.90
76996;DHT22;65929;49.062;10.338;2023-04-29T05:46:41;11.50;98.80
76996;DHT22;65929;49.062;10.338;2023-04-29T05:47:42;11.50;98.80
76996;DHT22;65929;49.062;10.338;2023-04-29T05:48:43;11.50;98.70
76996;DHT22;65929;49.062;10.338;2023-04-29T05:49:44;11.50;98.60
76996;DHT22;65929;49.062;10.338;2023-04-29T05:50:48;11.50;98.40
76996;DHT22;65929;49.062;10.338;2023-04-29T05:51:52;11.50;98.30
76996;DHT22;65929;49.062;10.338;2023-04-29T05:52:53;11.50;98.20
76996;DHT22;65929;49.062;10.338;2023-04-29T05:53:56;11.50;98.00
76996;DHT22;65929;49.062;10.338;2023-04-29T05:54:59;11.60;97.90
76996;DHT22;65929;49.062;10.338;2023-04-29T05:56:00;11.60;97.80
76996;DHT22;65929;49.062;10.338;2023-04-29T05:57:04;11.60;97.70
76996;DHT22;65929;49.062;10.338;2023-04-29T05:58:05;11.70;97.60
76996;DHT22;65929;49.062;10.338;2023-04-29T05:59:06;11.70;97.50
76996;DHT22;65929;49.062;10.338;2023-04-29T06:00:10;11.70;97.30
76996;DHT22;65929;49.062;10.338;2023-04-29T06:01:12;11.80;97.30
76996;DHT22;65929;49.062;10.338;2023-04-29T06:02:13;11.90;97.20
76996;DHT22;65929;49.062;10.338;2023-04-29T06:03:14;11.90;97.20
76996;DHT22;65929;49.062;10.338;2023-04-29T06:04:16;11.90;97.10
76996;DHT22;65929;49.062;10.338;2023-04-29T06:05:17;12.00;97.00
76996;DHT22;65929;49.062;10.338;2023-04-29T06:06:18;12.00;96.80
76996;DHT22;65929;49.062;10.338;2023-04-29T06:07:19;12.10;96.50
76996;DHT22;65929;49.062;10.338;2023-04-29T06:08:20;12.10;96.20
76996;DHT22;65929;49.062;10.338;2023-04-29T06:09:22;12.10;96.00
76996;DHT22;65929;49.062;10.338;2023-04-29T06:10:29;12.20;95.80
76996;DHT22;65929;49.062;10.338;2023-04-29T06:11:30;12.20;95.60
76996;DHT22;65929;49.062;10.338;2023-04-29T06:12:31;12.30;95.50
76996;DHT22;65929;49.062;10.338;2023-04-29T06:13:32;12.30;95.20
76996;DHT22;65929;49.062;10.338;2023-04-29T06:14:33;12.30;94.90
76996;DHT22;65929;49.062;10.338;2023-04-29T06:15:34;12.30;94.90
76996;DHT22;65929;49.062;10.338;2023-04-29T06:16:39;12.40;94.90
76996;DHT22;65929;49.062;10.338;2023-04-29T06:17:39;12.40;94.80
76996;DHT22;65929;49.062;10.338;2023-04-29T06:18:40;12.40;94.90
76996;DHT22;65929;49.062;10.338;2023-04-29T06:19:41;12.30;94.80
76996;DHT22;65929;49.062;10.338;2023-04-29T06:20:42;12.40;94.60
76996;DHT22;65929;49.062;10.338;2023-04-29T06:21:43;12.40;94.40
76996;DHT22;65929;49.062;10.338;2023-04-29T06:22:44;12.40;94.50
76996;DHT22;65929;49.062;10.338;2023-04-29T06:23:45;12.40;94.60
76996;DHT22;65929;49.062;10.338;2023-04-29T06:24:47;12.40;94.70
76996;DHT22;65929;49.062;10.338;2023-04-29T06:25:50;12.30;94.60
76996;DHT22;65929;49.062;10.338;2023-04-29T06:26:51;12.40;94.00
76996;DHT22;65929;49.062;10.338;2023-04-29T06:27:52;12.30;93.70
76996;DHT22;65929;49.062;10.338;2023-04-29T06:28:53;12.30;93.70